createdAt,value
2024-01-18T00:03:24.772Z,8.55
2024-01-18T00:13:26.792Z,7.57
2024-01-18T00:23:28.817Z,7.07
2024-01-18T00:33:31.195Z,7.63
2024-01-18T00:43:33.418Z,6.00
2024-01-18T00:53:35.350Z,7.43
2024-01-18T01:03:37.484Z,6.78
2024-01-18T01:13:39.901Z,5.40
2024-01-18T01:23:45.465Z,6.20
2024-01-18T01:33:48.870Z,7.88
2024-01-18T01:44:17.247Z,5.47
2024-01-18T01:54:22.812Z,5.30
2024-01-18T02:04:26.012Z,5.63
2024-01-18T02:14:28.496Z,5.45
2024-01-18T02:24:37.305Z,6.15
2024-01-18T02:34:41.469Z,5.50
2024-01-18T02:44:46.541Z,5.50
2024-01-18T02:54:48.655Z,4.78
2024-01-18T03:04:52.240Z,4.90
2024-01-18T03:14:54.636Z,5.53
2024-01-18T03:24:56.928Z,4.45
2024-01-18T03:34:58.871Z,4.18
2024-01-18T03:45:00.894Z,5.47
2024-01-18T03:55:02.864Z,5.35
2024-01-18T04:05:06.374Z,4.03
2024-01-18T04:15:08.732Z,5.03
2024-01-18T04:25:11.216Z,4.03
2024-01-18T04:35:13.411Z,3.60
2024-01-18T04:45:15.637Z,4.50
2024-01-18T04:55:17.961Z,3.97
2024-01-18T05:05:21.318Z,4.00
2024-01-18T05:15:26.274Z,4.57
2024-01-18T05:25:28.501Z,4.63
2024-01-18T05:35:30.410Z,4.28
2024-01-18T05:45:32.380Z,3.65
2024-01-18T05:55:35.089Z,4.45
2024-01-18T06:05:37.015Z,5.43
2024-01-18T06:15:40.681Z,4.45
2024-01-18T06:25:42.796Z,6.97
2024-01-18T06:35:45.143Z,4.80
2024-01-18T06:45:47.272Z,5.68
2024-01-18T06:55:49.365Z,6.25
2024-01-18T07:05:51.757Z,5.47
2024-01-18T07:15:54.279Z,5.63
2024-01-18T07:25:56.367Z,6.20
2024-01-18T07:35:59.259Z,6.65
2024-01-18T07:46:01.505Z,6.18
2024-01-18T07:56:03.681Z,8.60
2024-01-18T08:06:08.347Z,5.53
2024-01-18T08:16:11.275Z,5.07
2024-01-18T08:26:14.026Z,8.15
2024-01-18T08:36:18.088Z,5.50
2024-01-18T08:46:20.271Z,6.28
2024-01-18T08:56:27.345Z,6.47
2024-01-18T09:06:33.396Z,6.63
2024-01-18T09:16:35.892Z,5.78
2024-01-18T09:26:38.087Z,5.35
2024-01-18T09:36:40.487Z,8.40
2024-01-18T09:46:43.464Z,5.65
2024-01-18T09:56:47.335Z,7.03
2024-01-18T10:06:49.801Z,7.40
2024-01-18T10:16:53.827Z,6.30
2024-01-18T10:27:06.104Z,6.45
2024-01-18T10:37:09.799Z,7.63
2024-01-18T10:47:13.368Z,6.90
2024-01-18T10:57:15.536Z,7.50
2024-01-18T11:07:19.306Z,7.95
2024-01-18T11:17:23.317Z,6.72
2024-01-18T11:27:29.192Z,6.68
2024-01-18T11:37:31.358Z,7.18
2024-01-18T11:47:34.578Z,8.77
2024-01-18T11:57:36.779Z,8.13
2024-01-18T12:07:40.332Z,6.55
2024-01-18T12:17:42.941Z,8.85
2024-01-18T12:27:45.260Z,7.20
2024-01-18T12:37:47.486Z,6.82
2024-01-18T12:47:49.559Z,8.32
2024-01-18T12:57:54.776Z,7.55
2024-01-18T13:07:57.044Z,6.95
2024-01-18T13:17:58.969Z,7.75
2024-01-18T13:28:01.135Z,7.80
2024-01-18T13:38:03.305Z,7.60
2024-01-18T13:48:05.593Z,8.02
2024-01-18T13:58:09.358Z,8.75
2024-01-18T14:08:12.544Z,12.85
2024-01-18T14:18:14.940Z,7.45
2024-01-18T14:28:16.906Z,6.45
2024-01-18T14:38:19.059Z,6.30
2024-01-18T14:48:21.235Z,5.30
2024-01-18T14:58:23.172Z,6.18
2024-01-18T15:08:25.326Z,5.45
2024-01-18T15:18:27.493Z,4.07
2024-01-18T15:28:29.719Z,4.00
2024-01-18T15:38:31.975Z,4.18
2024-01-18T15:48:36.888Z,3.50
2024-01-18T15:58:39.026Z,3.97
2024-01-18T16:08:42.162Z,4.15
2024-01-18T16:18:45.910Z,10.18
2024-01-18T16:28:47.792Z,2.80
2024-01-18T16:38:49.572Z,2.85
2024-01-18T16:48:51.565Z,3.53
2024-01-18T16:58:53.543Z,2.70
2024-01-18T17:08:55.548Z,2.40
2024-01-18T17:18:57.502Z,2.85
2024-01-18T17:28:59.626Z,2.72
2024-01-18T17:39:01.532Z,5.60
2024-01-18T17:49:03.883Z,3.83
2024-01-18T17:59:06.361Z,4.63
2024-01-18T18:09:09.793Z,4.30
2024-01-18T18:19:11.826Z,4.68
2024-01-18T18:29:14.433Z,3.92
2024-01-18T18:39:16.680Z,4.95
2024-01-18T18:49:19.123Z,4.53
2024-01-18T18:59:21.180Z,3.67
2024-01-18T19:09:23.397Z,4.13
2024-01-18T19:19:25.526Z,4.18
2024-01-18T19:29:28.122Z,3.80
2024-01-18T19:39:35.383Z,3.78
2024-01-18T19:49:41.981Z,5.03
2024-01-18T19:59:44.485Z,6.20
2024-01-18T20:09:46.562Z,4.22
2024-01-18T20:19:48.580Z,5.28
2024-01-18T20:29:51.777Z,5.82
2024-01-18T20:39:54.472Z,5.93
2024-01-18T20:49:56.824Z,6.35
2024-01-18T20:59:59.091Z,7.20
2024-01-18T21:10:01.497Z,7.15
2024-01-18T21:20:05.589Z,8.07
2024-01-18T21:30:08.350Z,9.27
2024-01-18T21:40:10.738Z,10.68
2024-01-18T21:50:13.014Z,9.85
2024-01-18T22:00:15.381Z,11.77
2024-01-18T22:10:18.321Z,13.30
2024-01-18T22:20:20.218Z,12.80
2024-01-18T22:30:22.198Z,12.10
2024-01-18T22:40:24.291Z,14.15
2024-01-18T22:50:26.531Z,14.48
2024-01-18T23:00:29.156Z,13.65
2024-01-18T23:10:31.130Z,13.90
2024-01-18T23:20:33.023Z,12.75
2024-01-18T23:30:34.988Z,13.80
2024-01-18T23:40:36.973Z,11.63
2024-01-18T23:50:39.091Z,12.88
